Data for 05/25/2009

Time Sea-Level Adjusted Pressure Absolute Pressure Temperature Relative Humidity Dew Point   
(mb) (inHg) (mb) (inHg) (C) (F) (%) (C) (F)
00:05 1018 30.06 847 25.01 10.1 50.1 81 7 44.6
00:10 1018 30.06 848 25.04 10.1 50.2 81 6.9 44.5
00:15 1018 30.06 848 25.04 10.2 50.4 80 6.9 44.5
00:20 1018 30.06 848 25.04 10.2 50.4 80 7 44.6
00:25 1018 30.06 848 25.04 10.3 50.5 80 7 44.6
00:30 1018 30.06 848 25.04 10.3 50.6 79 6.9 44.5
00:35 1018 30.06 848 25.04 10.5 50.9 79 7 44.5
00:40 1018 30.06 848 25.04 10.4 50.8 79 7 44.5
00:45 1018 30.06 848 25.04 10.4 50.8 81 7.2 45
00:50 1018 30.06 848 25.04 10.4 50.6 81 7.2 44.9
00:55 1018 30.06 848 25.04 10.3 50.5 80 7 44.6
01:00 1018 30.06 848 25.04 10.3 50.5 81 7.3 45.1
01:05 1018 30.06 848 25.04 10.2 50.4 82 7.3 45.1
01:10 1018 30.06 848 25.04 10.2 50.4 81 7.1 44.7
01:15 1018 30.06 848 25.04 10.3 50.5 80 7 44.6
01:20 1018 30.06 848 25.04 10.3 50.6 80 7 44.7
01:25 1018 30.06 848 25.04 10.4 50.7 78 6.8 44.3
01:30 1018 30.06 848 25.04 10.4 50.7 78 6.8 44.3
01:35 1018 30.06 848 25.04 10.4 50.7 79 6.9 44.4
01:40 1018 30.06 848 25.04 10.4 50.7 79 7 44.6
01:45 1018 30.06 848 25.04 10.4 50.8 79 7 44.7
01:50 1019 30.09 848 25.04 10.5 50.9 79 7 44.6
01:55 1019 30.09 848 25.04 10.5 50.8 79 7 44.6
02:00 1019 30.09 848 25.04 10.4 50.8 79 7 44.7
02:05 1018 30.06 848 25.04 10.4 50.7 79 7 44.6
02:10 1018 30.06 848 25.04 10.3 50.5 80 7 44.6
02:15 1018 30.06 848 25.04 10.3 50.5 80 7 44.6
02:20 1019 30.09 848 25.04 10.2 50.4 81 7 44.7
02:25 1019 30.09 848 25.04 10.1 50.1 84 7.5 45.6
02:30 1019 30.09 848 25.04 9.5 49.1 86 7.3 45.1
02:35 1019 30.09 848 25.04 9.3 48.8 86 7.2 44.9
02:40 1019 30.09 848 25.04 9.4 48.9 85 7.1 44.7
02:45 1019 30.09 848 25.04 9.4 49 84 6.8 44.3
02:50 1018 30.06 848 25.04 9.5 49.1 85 7 44.6
02:55 1018 30.06 848 25.04 9.3 48.8 85 6.9 44.5
03:00 1018 30.06 848 25.04 9.1 48.4 86 6.8 44.3
03:05 1018 30.06 848 25.04 9.1 48.3 86 6.8 44.3
03:10 1018 30.06 848 25.04 9.1 48.4 86 6.9 44.4
03:15 1019 30.09 848 25.04 9 48.2 88 7 44.7
03:20 1019 30.09 848 25.04 8.9 47.9 87 6.9 44.4
03:25 1019 30.09 848 25.04 9.1 48.3 86 6.9 44.4
03:30 1018 30.06 848 25.04 9.2 48.6 85 6.9 44.4
03:35 1018 30.06 848 25.04 9.3 48.8 85 7 44.6
03:40 1018 30.06 848 25.04 9.3 48.7 86 7 44.6
03:45 1018 30.06 848 25.04 9.2 48.6 86 7.1 44.7
03:50 1018 30.06 848 25.04 9.2 48.5 87 7 44.7
03:55 1019 30.09 848 25.04 9.2 48.5 87 7 44.7
04:00 1019 30.09 848 25.04 9.1 48.4 86 7 44.6
04:05 1018 30.06 848 25.04 9.1 48.4 87 7 44.6
04:10 1019 30.09 848 25.04 9.1 48.3 87 7.1 44.7
04:15 1019 30.09 848 25.04 9 48.1 87 7 44.6
04:20 1019 30.09 848 25.04 9 48.2 87 7 44.6
04:25 1019 30.09 848 25.04 9.1 48.4 87 7 44.6
04:30 1019 30.09 848 25.04 9.2 48.5 87 7 44.7
04:35 1019 30.09 848 25.04 9.2 48.6 86 7 44.6
04:40 1019 30.09 848 25.04 9.2 48.5 86 7 44.6
04:45 1019 30.09 848 25.04 9 48.2 87 6.9 44.5
04:50 1019 30.09 848 25.04 9.1 48.3 86 6.9 44.3
04:55 1019 30.09 848 25.04 9 48.3 86 6.9 44.4
05:00 1019 30.09 848 25.04 8.9 48 87 6.8 44.2
05:05 1019 30.09 848 25.04 8.6 47.5 91 7.2 44.9
05:10 1019 30.09 848 25.04 8.2 46.7 92 7 44.6
05:15 1019 30.09 848 25.04 8.1 46.6 92 6.9 44.4
05:20 1019 30.09 848 25.04 7.9 46.3 93 6.9 44.3
05:25 1019 30.09 848 25.04 7.9 46.2 92 6.7 44.1
05:30 1019 30.09 848 25.04 7.9 46.3 92 6.7 44
05:35 1019 30.09 848 25.04 7.9 46.2 92 6.6 43.9
05:40 1019 30.09 848 25.04 7.8 46.1 91 6.5 43.7
05:45 1019 30.09 848 25.04 7.8 46 91 6.4 43.5
05:50 1019 30.09 848 25.04 7.8 46.1 91 6.4 43.6
05:55 1019 30.09 848 25.04 7.9 46.1 91 6.4 43.6
06:00 1019 30.09 848 25.04 7.9 46.1 90 6.3 43.4
06:05 1019 30.09 848 25.04 8 46.3 90 6.4 43.6
06:10 1019 30.09 848 25.04 7.9 46.2 90 6.4 43.6
06:15 1019 30.09 848 25.04 7.9 46.2 91 6.5 43.6
06:20 1019 30.09 849 25.07 8 46.3 91 6.5 43.7
06:25 1019 30.09 849 25.07 8 46.4 90 6.5 43.8
06:30 1019 30.09 849 25.07 8.1 46.5 90 6.6 43.8
06:35 1019 30.09 849 25.07 8.1 46.6 89 6.5 43.6
06:40 1019 30.09 849 25.07 8.2 46.7 89 6.4 43.5
06:45 1020 30.12 849 25.07 8.4 47.1 88 6.5 43.6
06:50 1020 30.12 849 25.07 8.8 47.8 86 6.6 43.8
06:55 1020 30.12 849 25.07 9.3 48.7 84 6.6 43.9
07:00 1020 30.12 849 25.07 9.4 48.9 85 6.9 44.5
07:05 1020 30.12 849 25.07 9.5 49 84 6.9 44.5
07:10 1020 30.12 849 25.07 9.4 48.9 84 6.9 44.3
07:15 1020 30.12 849 25.07 9.4 48.9 84 6.8 44.3
07:20 1020 30.12 849 25.07 9.4 48.8 85 6.9 44.5
07:25 1020 30.12 849 25.07 9.4 48.9 85 7 44.5
07:30 1020 30.12 849 25.07 9.5 49 84 6.9 44.4
07:35 1020 30.12 849 25.07 9.5 49.1 83 6.8 44.2
07:40 1020 30.12 849 25.07 9.8 49.6 82 6.9 44.4
07:45 1020 30.12 849 25.07 10 50 80 6.7 44.1
07:50 1020 30.12 849 25.07 10.6 51.1 79 7.1 44.8
07:55 1020 30.12 849 25.07 11.6 52.8 75 7.3 45.1
08:00 1020 30.12 849 25.07 11.8 53.2 76 7.6 45.7
08:05 1020 30.12 849 25.07 11.3 52.4 76 7.3 45.2
08:10 1020 30.12 849 25.07 11.2 52.1 77 7.3 45.2
08:15 1020 30.12 849 25.07 11.7 53.1 76 7.6 45.8
08:20 1020 30.12 849 25.07 12 53.7 77 8.2 46.8
08:25 1020 30.12 849 25.07 11.6 52.9 76 7.6 45.7
08:30 1020 30.12 849 25.07 11.7 53 77 7.8 46
08:35 1020 30.12 849 25.07 11.5 52.6 77 7.5 45.5
08:40 1020 30.12 849 25.07 11.8 53.2 78 8.1 46.7
08:45 1020 30.12 849 25.07 11.4 52.6 77 7.6 45.7
08:50 1020 30.12 849 25.07 12 53.6 75 7.7 45.8
08:55 1020 30.12 849 25.07 12.6 54.7 73 7.9 46.3
09:00 1020 30.12 849 25.07 12.6 54.6 72 7.7 45.9
09:05 1020 30.12 849 25.07 13 55.5 70 7.7 45.9
09:10 1020 30.12 849 25.07 13.3 55.9 70 8.1 46.5
09:15 1020 30.12 849 25.07 13.2 55.7 71 8.1 46.7
09:20 1020 30.12 850 25.1 13 55.4 71 7.9 46.1
09:25 1020 30.12 850 25.1 13.5 56.3 66 7.3 45.2
09:30 1020 30.12 850 25.1 14.1 57.4 65 7.7 45.9
09:35 1020 30.12 850 25.1 14 57.2 66 7.9 46.2
09:40 1020 30.12 850 25.1 13.6 56.6 67 7.6 45.7
09:45 1020 30.12 850 25.1 13.7 56.6 63 6.9 44.4
09:50 1020 30.12 850 25.1 14.8 58.6 59 7 44.6
09:55 1020 30.12 850 25.1 15.1 59.1 57 6.6 43.9
10:00 1020 30.12 850 25.1 15.1 59.2 55 6.3 43.3
10:05 1020 30.12 850 25.1 15.2 59.3 53 5.8 42.4
10:10 1020 30.12 850 25.1 14.5 58.2 60 7 44.6
10:15 1020 30.12 849 25.07 14.4 57.9 58 6.4 43.4
10:20 1020 30.12 849 25.07 15.2 59.3 52 5.4 41.7
10:25 1020 30.12 849 25.07 15.3 59.6 53 5.9 42.7
10:30 1020 30.12 849 25.07 14.9 58.8 54 5.8 42.5
10:35 1020 30.12 849 25.07 14.6 58.3 53 5.3 41.6
10:40 1020 30.12 849 25.07 14.8 58.7 55 6 42.8
10:45 1020 30.12 849 25.07 15.2 59.3 52 5.6 42
10:50 1020 30.12 849 25.07 16.1 60.9 48 5.2 41.4
10:55 1020 30.12 849 25.07 16 60.8 52 6.3 43.3
11:00 1020 30.12 849 25.07 14.5 58 58 6.3 43.4
11:05 1020 30.12 849 25.07 14.5 58 58 6.5 43.7
11:10 1020 30.12 849 25.07 14.6 58.2 58 6.5 43.7
11:15 1020 30.12 849 25.07 14.5 58.2 58 6.4 43.5
11:20 1020 30.12 849 25.07 14.7 58.5 57 6.3 43.4
11:25 1020 30.12 849 25.07 14.6 58.2 57 6.2 43.2
11:30 1020 30.12 849 25.07 14.6 58.2 58 6.5 43.7
11:35 1020 30.12 849 25.07 14.5 58.1 57 6.2 43.1
11:40 1020 30.12 849 25.07 14.4 58 56 5.9 42.7
11:45 1020 30.12 849 25.07 14.7 58.4 54 5.5 41.8
11:50 1020 30.12 849 25.07 15.8 60.4 49 5.3 41.5
11:55 1020 30.12 849 25.07 16.8 62.3 46 5.2 41.3
12:00 1020 30.12 849 25.07 17 62.5 43 4.4 40
12:05 1020 30.12 849 25.07 16.5 61.7 47 5.3 41.6
12:10 1020 30.12 849 25.07 16.2 61.2 49 5.6 42.1
12:15 1020 30.12 849 25.07 15.5 59.9 49 4.9 40.7
12:20 1020 30.12 849 25.07 15.6 60.1 47 4.3 39.7
12:25 1020 30.12 849 25.07 16.2 61.2 44 4.1 39.5
12:30 1020 30.12 849 25.07 16.7 62 45 4.6 40.3
12:35 1020 30.12 849 25.07 16.1 61 44 3.8 38.8
12:40 1020 30.12 849 25.07 17.2 62.9 43 4.5 40
12:45 1020 30.12 849 25.07 17.2 62.9 43 4.4 40
12:50 1020 30.12 849 25.07 17.3 63.1 43 4.8 40.6
12:55 1020 30.12 849 25.07 16.9 62.5 45 5.1 41.1
13:00 1020 30.12 849 25.07 16.4 61.5 50 6.1 42.9
13:05 1020 30.12 849 25.07 15.1 59.2 46 3.6 38.5
13:10 1020 30.12 849 25.07 14.1 57.4 47 3.1 37.6
13:15 1020 30.12 849 25.07 13.7 56.6 50 3.4 38.1
13:20 1020 30.12 849 25.07 12.9 55.2 62 5.7 42.3
13:25 1020 30.12 849 25.07 12.3 54.1 66 6.1 43
13:30 1020 30.12 849 25.07 11.5 52.8 65 5.3 41.5
13:35 1020 30.12 849 25.07 11.1 52 67 5.3 41.6
13:40 1020 30.12 850 25.1 10.7 51.2 70 5.4 41.7
13:45 1020 30.12 850 25.1 10.7 51.3 68 5.1 41.2
13:50 1020 30.12 850 25.1 11.2 52.2 61 4 39.2
13:55 1020 30.12 849 25.07 11.4 52.6 63 4.8 40.6
14:00 1020 30.12 849 25.07 11.7 53 59 3.9 39
14:05 1020 30.12 849 25.07 11.7 53.1 63 5 41
14:10 1020 30.12 849 25.07 11.7 53.1 62 4.8 40.6
14:15 1020 30.12 849 25.07 11.9 53.4 60 4.4 39.8
14:20 1020 30.12 849 25.07 12.5 54.5 60 4.9 40.8
14:25 1020 30.12 849 25.07 13.1 55.6 52 3.6 38.4
14:30 1020 30.12 849 25.07 13.6 56.5 58 5.6 42.2
14:35 1020 30.12 849 25.07 13.7 56.7 57 5.5 41.8
14:40 1020 30.12 849 25.07 13.6 56.4 55 4.7 40.5
14:45 1020 30.12 849 25.07 14.4 57.8 54 5.3 41.6
14:50 1020 30.12 849 25.07 14.4 57.9 50 4.1 39.3
14:55 1020 30.12 849 25.07 14.9 58.7 45 3.2 37.8
15:00 1020 30.12 849 25.07 14.8 58.6 53 5.3 41.5
15:05 1020 30.12 849 25.07 14.7 58.5 53 5.4 41.7
15:10 1020 30.12 849 25.07 14.8 58.7 48 3.9 39.1
15:15 1020 30.12 849 25.07 14.9 58.8 52 5.3 41.6
15:20 1020 30.12 849 25.07 14.6 58.2 51 4.7 40.5
15:25 1020 30.12 849 25.07 14.6 58.2 51 4.7 40.4
15:30 1020 30.12 849 25.07 14.3 57.7 49 3.8 38.9
15:35 1020 30.12 849 25.07 14.2 57.5 53 4.9 40.9
15:40 1020 30.12 849 25.07 13.9 57.1 55 5 41
15:45 1020 30.12 849 25.07 13.9 57 54 4.8 40.6
15:50 1019 30.09 849 25.07 13.8 56.9 52 4.3 39.8
15:55 1020 30.12 849 25.07 14.2 57.6 54 5.1 41.2
16:00 1019 30.09 849 25.07 14.2 57.5 53 4.9 40.8
16:05 1019 30.09 849 25.07 14.7 58.5 50 4.6 40.2
16:10 1019 30.09 849 25.07 14.6 58.2 52 4.9 40.7
16:15 1019 30.09 849 25.07 15.1 59.2 50 4.7 40.5
16:20 1019 30.09 849 25.07 15.3 59.5 49 4.6 40.4
16:25 1019 30.09 849 25.07 15.3 59.5 47 4.1 39.4
16:30 1019 30.09 849 25.07 15.3 59.5 50 5.1 41.3
16:35 1019 30.09 849 25.07 14.9 58.8 50 4.6 40.3
16:40 1019 30.09 849 25.07 15.7 60.3 46 4.1 39.4
16:45 1019 30.09 849 25.07 15.7 60.3 47 4.5 40
16:50 1019 30.09 849 25.07 15.3 59.6 47 4.3 39.7
16:55 1019 30.09 849 25.07 15.9 60.6 44 3.7 38.7
17:00 1019 30.09 848 25.04 15.9 60.6 44 3.6 38.5
17:05 1019 30.09 848 25.04 16.7 62 40 3.1 37.6
17:10 1019 30.09 848 25.04 16.6 61.9 39 2.8 37
17:15 1019 30.09 848 25.04 16.7 62.1 39 2.9 37.2
17:20 1019 30.09 848 25.04 16.3 61.4 41 3.3 37.9
17:25 1019 30.09 848 25.04 16.2 61.1 43 3.5 38.3
17:30 1019 30.09 848 25.04 16.5 61.7 40 3 37.4
17:35 1019 30.09 848 25.04 16.5 61.7 39 2.5 36.5
17:40 1019 30.09 848 25.04 16.5 61.7 40 3.1 37.6
17:45 1019 30.09 848 25.04 16.8 62.3 37 2.3 36.2
17:50 1019 30.09 848 25.04 17.3 63.2 37 2.7 36.9
17:55 1019 30.09 848 25.04 16.9 62.4 39 2.9 37.2
18:00 1019 30.09 848 25.04 16.4 61.6 39 2.6 36.7
18:05 1019 30.09 848 25.04 16.9 62.4 38 2.6 36.7
18:10 1019 30.09 848 25.04 17.6 63.6 36 2.5 36.4
18:15 1019 30.09 848 25.04 18.3 65 36 3.2 37.8
18:20 1019 30.09 848 25.04 17.8 64.1 36 2.6 36.7
18:25 1019 30.09 848 25.04 17.2 62.9 36 2.1 35.8
18:30 1019 30.09 848 25.04 17 62.7 39 3 37.4
18:35 1019 30.09 848 25.04 16.6 61.9 37 1.8 35.2
18:40 1019 30.09 848 25.04 16.6 62 37 2.2 35.9
18:45 1018 30.06 848 25.04 16.5 61.8 36 1.4 34.5
18:50 1018 30.06 848 25.04 16.6 61.8 33 0.4 32.7
18:55 1018 30.06 848 25.04 16.5 61.7 34 0.6 33.2
19:00 1018 30.06 848 25.04 16.6 61.9 32 0.2 32.3
19:05 1018 30.06 848 25.04 16.7 62 32 -0.1 31.9
19:10 1018 30.06 848 25.04 16.7 62.1 33 0.5 32.9
19:15 1018 30.06 848 25.04 16.6 61.9 33 0.2 32.4
19:20 1018 30.06 848 25.04 16.4 61.6 32 -0.4 31.3
19:25 1018 30.06 848 25.04 16.3 61.4 32 -0.2 31.6
19:30 1018 30.06 848 25.04 16.2 61.2 33 0.2 32.3
19:35 1019 30.09 848 25.04 16.3 61.3 33 0 32.1
19:40 1019 30.09 848 25.04 16.4 61.6 33 0.1 32.1
19:45 1019 30.09 848 25.04 16.4 61.5 32 -0.3 31.5
19:50 1019 30.09 848 25.04 16.3 61.3 33 -0 32
19:55 1019 30.09 848 25.04 16.3 61.3 32 -0.2 31.6
20:00 1019 30.09 848 25.04 16.1 61.1 32 -0.3 31.5
20:05 1019 30.09 848 25.04 16 60.9 33 0 32
20:10 1019 30.09 848 25.04 15.8 60.4 34 -0.1 31.9
20:15 1019 30.09 848 25.04 15.6 60.1 35 0.2 32.4
20:20 1019 30.09 848 25.04 15.5 59.8 35 0.2 32.4
20:25 1018 30.06 848 25.04 15.4 59.7 35 0 32
20:30 1018 30.06 848 25.04 15.3 59.6 36 0.3 32.5
20:35 1018 30.06 848 25.04 15.1 59.2 37 0.6 33.1
20:40 1019 30.09 848 25.04 14.9 58.8 37 0.6 33.1
20:45 1019 30.09 848 25.04 14.8 58.6 38 0.8 33.5
20:50 1019 30.09 848 25.04 14.7 58.4 39 1 33.8
20:55 1019 30.09 848 25.04 14.4 58 43 2.1 35.7
21:00 1019 30.09 848 25.04 14.1 57.4 43 1.9 35.5
21:05 1019 30.09 848 25.04 13.9 57 42 1.1 34
21:10 1019 30.09 848 25.04 13.7 56.7 43 1.4 34.5
21:15 1019 30.09 848 25.04 13.6 56.4 43 1.3 34.3
21:20 1019 30.09 848 25.04 13.5 56.3 42 1 33.8
21:25 1019 30.09 848 25.04 13.4 56.2 41 0.6 33.2
21:30 1019 30.09 848 25.04 13.4 56.2 40 0.3 32.5
21:35 1019 30.09 848 25.04 13.4 56.2 40 0.1 32.1
21:40 1019 30.09 848 25.04 13.4 56.1 40 0.3 32.5
21:45 1019 30.09 848 25.04 13.3 55.9 40 0.2 32.3
21:50 1019 30.09 848 25.04 13.2 55.8 42 0.5 32.9
21:55 1019 30.09 848 25.04 13 55.4 43 0.7 33.2
22:00 1019 30.09 848 25.04 12.9 55.3 44 0.9 33.7
22:05 1019 30.09 848 25.04 12.7 54.8 46 1.5 34.7
22:10 1019 30.09 848 25.04 12.4 54.3 47 1.6 34.8
22:15 1019 30.09 848 25.04 12.4 54.2 47 1.5 34.6
22:20 1019 30.09 848 25.04 12.5 54.4 48 1.7 35.1
22:25 1019 30.09 849 25.07 12.4 54.2 48 1.8 35.2
22:30 1019 30.09 849 25.07 12.2 53.9 50 2.1 35.8
22:35 1019 30.09 849 25.07 12 53.6 51 2.1 35.8
22:40 1019 30.09 849 25.07 12 53.6 50 2 35.7
22:45 1019 30.09 849 25.07 12.1 53.7 51 2.2 36
22:50 1019 30.09 849 25.07 12 53.5 52 2.4 36.2
22:55 1019 30.09 849 25.07 11.8 53.2 52 2.4 36.3
23:00 1019 30.09 849 25.07 11.7 53.1 52 2.3 36.1
23:05 1019 30.09 849 25.07 11.8 53.2 52 2.3 36.2
23:10 1019 30.09 849 25.07 11.8 53.2 52 2.2 36
23:15 1019 30.09 849 25.07 11.7 53.1 53 2.5 36.5
23:20 1019 30.09 849 25.07 11.5 52.6 54 2.6 36.6
23:25 1019 30.09 849 25.07 11.2 52.1 56 2.8 37
23:30 1019 30.09 849 25.07 10.8 51.4 58 2.8 37.1
23:35 1019 30.09 849 25.07 10.5 50.9 59 2.9 37.2
23:40 1019 30.09 849 25.07 10.1 50.1 61 3 37.5
23:45 1019 30.09 849 25.07 9.5 49.2 63 2.8 37
23:50 1019 30.09 849 25.07 9.4 48.9 63 2.8 37
23:55 1019 30.09 849 25.07 9.4 48.9 62 2.6 36.7
24:00 1019 30.09 849 25.07 9.4 48.9 62 2.5 36.6